Time;durP1;ratioP1;P1;durP2;ratioP2;P2;SDS_P1;SDS_P2;PMS_P1;PMS_P2;Temp;Humidity;BMP_temperature;BMP_pressure;BME280_temperature;BME280_humidity;BME280_pressure;Samples;Min_cycle;Max_cycle;Signal;HPM_P1;HPM_P2
2023/04/09 07:01:19;;;;;;;0.40;0.40;;;14.30;99.90;17.90;102287.00;;;;6340350;22;20189;-68
2023/04/09 07:03:48;;;;;;;5.73;3.30;;;15.00;99.90;19.60;102293.00;;;;6313227;22;20517;-68
2023/04/09 07:06:14;;;;;;;0.90;0.90;;;15.80;99.90;18.10;102255.00;;;;6313080;22;20566;-68
2023/04/09 07:08:45;;;;;;;0.20;0.20;;;15.50;99.90;19.20;102293.00;;;;6313246;22;20151;-68
2023/04/09 07:11:11;;;;;;;4.77;3.20;;;15.60;99.90;17.10;102304.00;;;;6340973;22;20149;-68
2023/04/09 07:13:36;;;;;;;3.17;2.87;;;14.90;99.90;18.10;102299.00;;;;6340754;22;20155;-68
2023/04/09 07:16:05;;;;;;;2.47;1.20;;;15.10;99.90;18.60;102286.00;;;;6312717;22;20137;-70
2023/04/09 07:18:34;;;;;;;0.70;0.70;;;15.30;99.90;19.40;102233.00;;;;6339744;22;20576;-70
2023/04/09 07:21:00;;;;;;;2.03;1.93;;;15.80;99.90;18.80;102298.00;;;;6312731;22;20138;-70
2023/04/09 07:23:26;;;;;;;1.38;1.38;;;15.90;99.90;19.30;102278.00;;;;6312842;22;20219;-69
2023/04/09 07:25:55;;;;;;;7.50;5.70;;;16.10;99.90;18.80;102310.00;;;;6340354;22;20164;-69
2023/04/09 07:28:33;;;;;;;4.47;4.10;;;16.00;99.90;17.20;102319.00;;;;6340127;22;20583;-69
2023/04/09 07:31:18;;;;;;;1.07;0.97;;;15.20;99.90;17.40;102286.00;;;;6313050;22;20142;-69
2023/04/09 07:33:55;;;;;;;1.77;1.70;;;14.70;99.90;19.20;102271.00;;;;6340432;22;20463;-69
2023/04/09 07:36:33;;;;;;;2.17;1.93;;;15.50;99.90;16.50;102313.00;;;;6313063;22;20271;-68
2023/04/09 07:39:29;;;;;;;4.37;3.43;;;15.20;99.90;18.20;102287.00;;;;6340614;22;20169;-68
2023/04/09 07:42:35;;;;;;;17.05;8.25;;;15.30;99.90;16.40;102289.00;;;;6312716;22;20578;-68
2023/04/09 07:45:15;;;;;;;5.72;3.20;;;15.00;99.90;16.90;102248.00;;;;6312786;22;20178;-69
2023/04/09 07:47:53;;;;;;;5.15;3.00;;;14.70;99.90;18.20;102272.00;;;;6340228;22;20140;-69
2023/04/09 07:50:24;;;;;;;3.00;2.83;;;15.40;99.90;18.80;102269.00;;;;6286717;22;20152;-69
2023/04/09 07:53:07;;;;;;;2.53;2.33;;;15.70;99.90;19.00;102299.00;;;;6312552;22;20576;-69
2023/04/09 07:55:40;;;;;;;1.58;1.58;;;16.10;99.90;19.40;102282.00;;;;6313220;22;20156;-69
2023/04/09 07:58:23;;;;;;;1.98;1.90;;;16.20;99.90;18.40;102300.00;;;;6286624;22;20147;-69
2023/04/09 08:00:59;;;;;;;4.07;2.65;;;16.00;99.90;19.10;102301.00;;;;6261659;22;20199;-69
2023/04/09 08:03:31;;;;;;;14.45;3.60;;;16.00;99.90;18.20;102320.00;;;;6280882;22;20171;-69
2023/04/09 08:06:05;;;;;;;5.65;5.10;;;15.80;99.90;18.50;102293.00;;;;6255288;22;20591;-69
2023/04/09 08:08:39;;;;;;;1.73;1.65;;;15.70;99.90;17.90;102293.00;;;;6281880;22;20240;-68
2023/04/09 08:11:15;;;;;;;5.75;3.00;;;15.50;99.90;17.40;102304.00;;;;6281754;22;20204;-68
2023/04/09 08:13:49;;;;;;;2.47;2.15;;;15.40;99.90;18.40;102302.00;;;;6258093;22;20187;-69
2023/04/09 08:16:23;;;;;;;3.40;3.15;;;15.70;99.90;18.00;102315.00;;;;6308902;22;20278;-68
2023/04/09 08:19:01;;;;;;;0.55;0.55;;;15.50;99.90;19.20;102316.00;;;;6282051;22;20344;-68
2023/04/09 08:21:44;;;;;;;6.90;6.25;;;16.30;99.90;16.30;102342.00;;;;6281070;22;20140;-68
2023/04/09 08:24:20;;;;;;;1.38;1.35;;;15.50;99.90;19.00;102296.00;;;;6308959;22;20144;-69
2023/04/09 08:26:57;;;;;;;0.65;0.65;;;15.50;99.90;19.00;102304.00;;;;6256218;22;20159;-68
2023/04/09 08:29:33;;;;;;;10.75;4.38;;;16.00;99.90;21.20;102287.00;;;;6308428;22;20166;-69
2023/04/09 08:32:06;;;;;;;1.73;1.73;;;17.10;99.90;20.80;102286.00;;;;6308845;22;20133;-69
2023/04/09 08:34:46;;;;;;;1.85;1.30;;;17.60;99.90;22.50;102265.00;;;;6281392;22;20136;-69
2023/04/09 08:37:28;;;;;;;2.92;2.60;;;18.40;99.90;19.60;102318.00;;;;6282375;22;20167;-69
2023/04/09 08:40:10;;;;;;;1.75;1.75;;;17.70;99.90;20.10;102320.00;;;;6308672;22;20137;-69
2023/04/09 08:42:55;;;;;;;4.35;2.10;;;17.50;99.90;22.00;102285.00;;;;6281335;22;20176;-69
2023/04/09 08:45:30;;;;;;;2.75;2.65;;;18.20;99.90;21.10;102299.00;;;;6281070;22;20145;-69
2023/04/09 08:48:02;;;;;;;5.65;4.55;;;18.30;99.90;21.60;102288.00;;;;6281822;22;20140;-69
2023/04/09 08:50:44;;;;;;;3.95;3.58;;;18.80;99.90;19.70;102325.00;;;;6308246;22;20137;-69
2023/04/09 08:53:27;;;;;;;0.10;0.10;;;18.10;99.90;21.30;102285.00;;;;6308638;22;20133;-69
2023/04/09 08:56:03;;;;;;;1.88;1.77;;;18.20;99.90;19.80;102270.00;;;;6282703;22;20141;-69
2023/04/09 08:58:41;;;;;;;3.05;2.83;;;17.90;99.90;19.90;102323.00;;;;6280674;22;20240;-70
2023/04/09 09:01:21;;;;;;;6.80;4.50;;;17.50;99.90;21.00;102298.00;;;;6337893;22;20167;-70
2023/04/09 09:04:04;;;;;;;9.07;4.97;;;17.90;99.90;20.80;102286.00;;;;6311638;22;20180;-70
2023/04/09 09:06:40;;;;;;;0.20;0.20;;;17.90;99.90;21.00;102287.00;;;;6312055;22;20189;-71
2023/04/09 09:09:17;;;;;;;6.18;3.72;;;18.20;99.90;19.40;102329.00;;;;6339203;22;20215;-70
2023/04/09 09:11:54;;;;;;;0.77;0.77;;;17.60;99.90;20.00;102327.00;;;;6339644;22;20155;-70
2023/04/09 09:14:35;;;;;;;13.13;6.10;;;17.50;99.90;20.10;102326.00;;;;6312701;22;20136;-70
2023/04/09 09:17:07;;;;;;;3.85;1.55;;;17.10;99.90;20.60;102320.00;;;;6313590;22;20136;-70
2023/04/09 09:19:36;;;;;;;3.50;3.25;;;17.60;99.90;19.20;102345.00;;;;6311941;22;20140;-70
2023/04/09 09:22:11;;;;;;;3.63;3.33;;;17.20;99.90;19.60;102338.00;;;;6339584;22;20230;-70
2023/04/09 09:24:53;;;;;;;2.50;1.40;;;17.20;99.90;21.20;102310.00;;;;6312115;22;20658;-70
2023/04/09 09:27:41;;;;;;;17.40;9.50;;;17.80;99.90;18.00;102351.00;;;;6339471;22;20151;-70
2023/04/09 09:30:21;;;;;;;1.55;1.38;;;17.00;99.90;19.60;102337.00;;;;6312299;22;20250;-70
2023/04/09 09:33:05;;;;;;;1.75;0.80;;;16.70;99.90;20.90;102314.00;;;;6338933;22;20144;-70
2023/04/09 09:35:56;;;;;;;0.90;0.90;;;17.40;99.90;21.80;102278.00;;;;6339449;22;20139;-70
2023/04/09 09:38:31;;;;;;;3.00;2.28;;;18.30;99.90;22.30;102270.00;;;;6286072;22;20615;-70
2023/04/09 09:41:21;;;;;;;10.38;5.75;;;18.70;99.90;19.00;102337.00;;;;6312057;22;20144;-70
2023/04/09 09:44:05;;;;;;;4.90;3.40;;;17.50;99.90;19.80;102318.00;;;;6311387;22;20613;-70
2023/04/09 09:46:39;;;;;;;3.22;2.55;;;17.10;99.90;20.80;102304.00;;;;6312974;22;20163;-70
2023/04/09 09:49:11;;;;;;;5.93;4.15;;;17.70;99.90;19.40;102312.00;;;;6311563;22;20139;-70
2023/04/09 09:51:46;;;;;;;6.82;3.88;;;17.50;99.90;20.60;102282.00;;;;6311722;22;20525;-70
2023/04/09 09:54:30;;;;;;;2.58;2.38;;;18.10;99.90;19.80;102301.00;;;;6311566;22;20139;-70
2023/04/09 09:57:06;;;;;;;1.57;1.57;;;17.40;99.90;19.30;102314.00;;;;6312354;22;20162;-70
2023/04/09 10:00:03;;;;;;;2.20;2.10;;;16.70;99.90;21.30;102290.00;;;;6310889;22;20171;-70
2023/04/09 10:02:43;;;;;;;4.75;2.15;;;17.50;99.90;19.90;102308.00;;;;6312158;22;20197;-70
2023/04/09 10:05:18;;;;;;;0.30;0.30;;;17.50;99.90;21.70;102265.00;;;;6311256;22;20575;-70
2023/04/09 10:07:54;;;;;;;0.82;0.70;;;18.10;99.90;21.40;102262.00;;;;6312369;22;20161;-70
2023/04/09 10:10:47;;;;;;;9.23;6.50;;;18.30;99.90;20.30;102268.00;;;;6339347;22;20182;-70
2023/04/09 10:13:34;;;;;;;2.33;2.20;;;17.70;99.90;21.80;102206.00;;;;6311918;22;20159;-69
2023/04/09 10:16:14;;;;;;;5.82;3.60;;;18.30;99.90;22.00;102234.00;;;;6311111;22;20198;-70
2023/04/09 10:18:54;;;;;;;0.85;0.85;;;19.00;99.90;20.10;102253.00;;;;6311575;22;20163;-70
2023/04/09 10:33:44;;;;;;;0.38;0.35;;;18.50;99.90;21.60;102239.00;;;;5142100;27;20507;-68
2023/04/09 10:36:35;;;;;;;1.13;1.02;;;18.90;99.90;22.40;102212.00;;;;5129137;28;20194;-68
2023/04/09 10:39:21;;;;;;;0.55;0.55;;;19.20;99.90;21.90;102216.00;;;;5118210;28;20182;-68
2023/04/09 10:42:01;;;;;;;0.65;0.65;;;18.90;99.90;22.00;102214.00;;;;5117567;28;20171;-68
2023/04/09 10:44:41;;;;;;;1.85;1.15;;;18.80;99.90;21.10;102224.00;;;;5118372;27;20180;-68
2023/04/09 10:47:33;;;;;;;0.40;0.40;;;18.50;99.90;21.70;102204.00;;;;5090535;28;20183;-68
2023/04/09 10:50:24;;;;;;;3.85;3.53;;;19.20;99.90;22.70;102191.00;;;;5107593;28;20228;-68
2023/04/09 10:53:26;;;;;;;1.25;0.73;;;19.10;99.90;23.70;102178.00;;;;5118121;28;20656;-68
2023/04/09 10:56:14;;;;;;;1.05;1.05;;;20.00;99.90;21.70;102209.00;;;;5121916;28;20179;-68
2023/04/09 10:58:54;;;;;;;1.60;1.50;;;18.80;99.90;22.90;102193.00;;;;5110915;28;20189;-68
2023/04/09 11:01:51;;;;;;;2.92;0.75;;;19.70;99.90;20.90;102220.00;;;;5111449;28;20199;-68
2023/04/09 11:05:04;;;;;;;0.35;0.35;;;18.70;99.90;21.60;102206.00;;;;5091096;28;20200;-68
2023/04/09 11:07:43;;;;;;;0.10;0.10;;;18.60;99.90;21.90;102202.00;;;;5094742;28;20188;-68
2023/04/09 11:10:39;;;;;;;5.10;2.42;;;18.90;99.90;22.50;102198.00;;;;5119123;28;20183;-68
2023/04/09 11:13:37;;;;;;;0.73;0.73;;;19.60;99.90;23.10;102180.00;;;;5122916;28;20200;-68
2023/04/09 11:16:16;;;;;;;1.83;1.08;;;19.90;99.90;21.60;102193.00;;;;5108160;28;20668;-68
2023/04/09 11:19:14;;;;;;;0.30;0.30;;;19.50;99.90;23.10;102175.00;;;;5112054;28;20203;-68
2023/04/09 11:22:08;;;;;;;3.33;3.03;;;19.60;99.90;23.80;102152.00;;;;5088100;28;20208;-68
2023/04/09 11:25:04;;;;;;;2.45;1.73;;;20.60;99.90;21.90;102160.00;;;;5101639;28;20220;-68
2023/04/09 11:27:53;;;;;;;2.10;2.00;;;19.90;99.90;22.00;102193.00;;;;5120129;28;20188;-68
2023/04/09 11:30:49;;;;;;;0.57;0.57;;;19.50;99.90;22.90;102177.00;;;;5123537;28;20207;-68
2023/04/09 11:33:31;;;;;;;2.10;1.73;;;19.90;99.90;22.70;102178.00;;;;5086616;28;20369;-68
2023/04/09 11:36:13;;;;;;;1.00;0.93;;;20.10;99.90;22.10;102190.00;;;;5110934;28;20192;-68
2023/04/09 11:38:56;;;;;;;2.10;1.98;;;19.60;99.90;22.00;102174.00;;;;5110139;28;20213;-68
2023/04/09 11:42:27;;;;;;;4.90;2.88;;;19.40;99.90;22.50;102191.00;;;;5101853;28;20196;-67
2023/04/09 11:45:25;;;;;;;0.10;0.10;;;19.30;99.90;20.60;102221.00;;;;5036948;28;20720;-68
2023/04/09 11:48:06;;;;;;;3.05;2.55;;;18.70;99.90;23.00;102183.00;;;;5053416;28;20273;-68
2023/04/09 11:50:53;;;;;;;0.40;0.40;;;18.90;99.90;23.20;102178.00;;;;5027629;28;20224;-68
2023/04/09 11:53:43;;;;;;;0.40;0.40;;;19.30;99.90;23.70;102155.00;;;;5053086;28;20295;-68
2023/04/09 11:56:38;;;;;;;0.10;0.10;;;20.10;99.90;22.40;102176.00;;;;5059279;28;20198;-68
2023/04/09 11:59:19;;;;;;;1.00;0.98;;;19.90;99.90;21.30;102168.00;;;;4999441;28;20206;-68
2023/04/09 12:02:10;;;;;;;0.80;0.80;;;19.10;99.90;22.90;102174.00;;;;5094118;28;20547;-68
2023/04/09 12:04:54;;;;;;;0.73;0.57;;;19.20;99.90;21.10;102205.00;;;;5092324;28;20250;-68
2023/04/09 12:08:06;;;;;;;0.55;0.55;;;18.70;99.90;22.80;102182.00;;;;5098170;28;20195;-68
2023/04/09 12:11:15;;;;;;;0.52;0.43;;;18.80;99.90;21.90;102191.00;;;;5092869;28;20206;-68
2023/04/09 12:14:08;;;;;;;0.63;0.52;;;18.70;99.90;20.90;102216.00;;;;5105019;28;20184;-68
2023/04/09 12:16:52;;;;;;;5.38;2.47;;;18.40;99.90;21.90;102208.00;;;;5077518;28;20192;-68
2023/04/09 12:19:35;;;;;;;0.30;0.30;;;18.30;99.90;22.00;102200.00;;;;5095698;28;20657;-68
2023/04/09 12:22:09;;;;;;;0.20;0.20;;;18.50;99.90;21.10;102205.00;;;;5097945;28;20706;-68
2023/04/09 12:24:54;;;;;;;1.38;0.77;;;18.60;99.90;22.00;102200.00;;;;5102788;28;20187;-68
2023/04/09 12:27:49;;;;;;;5.63;3.00;;;18.70;99.90;20.80;102223.00;;;;5102012;28;20212;-68
2023/04/09 12:30:22;;;;;;;0.43;0.43;;;18.40;99.90;21.20;102214.00;;;;5106031;28;20188;-68
2023/04/09 12:33:12;;;;;;;5.13;4.40;;;18.40;99.90;21.40;102193.00;;;;5100449;28;20213;-67
2023/04/09 12:36:03;;;;;;;3.78;3.00;;;18.20;99.90;21.60;102199.00;;;;5026919;28;20193;-67
2023/04/09 12:38:40;;;;;;;1.70;1.60;;;18.30;99.90;22.00;102193.00;;;;5032642;28;20213;-67
2023/04/09 12:41:29;;;;;;;1.02;0.70;;;18.60;99.90;21.70;102204.00;;;;5096031;28;20218;-67
2023/04/09 12:44:00;;;;;;;3.72;3.55;;;18.60;99.90;19.90;102229.00;;;;5113912;28;20178;-67
2023/04/09 12:46:43;;;;;;;1.40;1.40;;;18.00;99.90;21.60;102198.00;;;;5105696;28;20195;-67
2023/04/09 12:49:32;;;;;;;18.77;4.15;;;18.00;99.90;19.90;102234.00;;;;5107010;28;20187;-67
2023/04/09 12:52:10;;;;;;;1.38;1.27;;;17.90;99.90;21.60;102216.00;;;;5097056;28;20280;-67
2023/04/09 12:55:01;;;;;;;0.38;0.38;;;18.10;99.90;22.70;102182.00;;;;5073712;28;20184;-67
2023/04/09 12:57:50;;;;;;;0.55;0.55;;;18.80;99.90;22.30;102188.00;;;;5092812;28;20191;-67
2023/04/09 13:00:39;;;;;;;1.42;1.35;;;18.90;99.90;21.20;102197.00;;;;5098067;28;20199;-67
2023/04/09 13:03:24;;;;;;;3.05;2.53;;;18.70;99.90;22.10;102175.00;;;;5063924;28;20549;-67
2023/04/09 13:06:21;;;;;;;1.08;1.08;;;18.60;99.90;22.20;102181.00;;;;5096068;28;20209;-67
2023/04/09 13:09:12;;;;;;;1.48;1.25;;;18.90;99.90;22.60;102173.00;;;;5081774;28;20253;-67
2023/04/09 13:12:02;;;;;;;2.67;2.47;;;18.90;99.90;22.10;102169.00;;;;5092218;28;20257;-68
2023/04/09 13:15:12;;;;;;;3.95;3.63;;;19.20;99.90;21.30;102198.00;;;;5103648;28;20195;-67
2023/04/09 13:18:09;;;;;;;0.30;0.30;;;18.60;99.90;21.80;102182.00;;;;5103832;28;20196;-67
2023/04/09 13:21:17;;;;;;;0.10;0.10;;;18.80;99.90;21.30;102195.00;;;;5097356;28;20204;-68
2023/04/09 13:24:06;;;;;;;2.28;1.85;;;18.30;99.90;21.70;102178.00;;;;5093669;28;20195;-68
2023/04/09 13:27:08;;;;;;;2.20;2.10;;;18.60;99.90;22.10;102171.00;;;;5095249;28;20192;-67
2023/04/09 13:29:59;;;;;;;0.10;0.10;;;18.80;99.90;22.20;102154.00;;;;5100255;28;20195;-68
2023/04/09 13:33:06;;;;;;;7.50;5.15;;;18.80;99.90;20.60;102179.00;;;;5036406;28;20230;-67
2023/04/09 13:36:03;;;;;;;2.63;1.88;;;18.60;99.90;20.80;102181.00;;;;5098663;28;20237;-67
2023/04/09 13:38:52;;;;;;;0.40;0.40;;;18.10;99.90;21.70;102129.00;;;;5099349;28;20191;-67
2023/04/09 13:42:04;;;;;;;3.15;2.38;;;18.40;99.90;22.00;102149.00;;;;5012414;28;20683;-67
2023/04/09 13:44:54;;;;;;;0.30;0.30;;;18.80;99.90;22.20;102119.00;;;;5094728;28;20624;-67
2023/04/09 13:47:43;;;;;;;1.45;1.45;;;18.80;99.90;23.20;102103.00;;;;5075900;28;20648;-67
2023/04/09 13:50:35;;;;;;;0.20;0.20;;;19.30;99.90;23.20;102105.00;;;;5041532;28;20245;-67
2023/04/09 13:53:26;;;;;;;0.45;0.45;;;19.80;99.90;22.60;102095.00;;;;5089303;28;20206;-67
2023/04/09 13:56:22;;;;;;;2.00;0.82;;;19.40;99.90;21.90;102079.00;;;;5084245;28;20555;-67
2023/04/09 13:59:11;;;;;;;1.38;1.20;;;19.00;99.90;22.80;102067.00;;;;5083023;28;20204;-67
2023/04/09 14:02:09;;;;;;;0.80;0.80;;;19.20;99.90;23.00;102094.00;;;;5087609;28;20671;-67
2023/04/09 14:05:10;;;;;;;1.88;1.33;;;19.40;99.90;22.90;102084.00;;;;5102602;28;20185;-68
2023/04/09 14:07:52;;;;;;;4.20;2.72;;;19.50;99.90;22.10;102101.00;;;;5093062;28;20195;-67
2023/04/09 14:10:47;;;;;;;2.80;1.00;;;19.40;99.90;22.10;102097.00;;;;5106544;28;20184;-68
2023/04/09 14:13:46;;;;;;;0.52;0.52;;;19.10;99.90;22.70;102082.00;;;;5098662;28;20220;-67
2023/04/09 14:16:37;;;;;;;0.40;0.40;;;19.20;99.90;22.30;102092.00;;;;5099951;28;20201;-67
2023/04/09 14:19:30;;;;;;;1.30;1.17;;;19.20;99.90;22.30;102090.00;;;;5026056;28;20191;-67
2023/04/09 14:22:19;;;;;;;0.45;0.45;;;19.30;99.90;22.20;102064.00;;;;5012543;28;20190;-67
2023/04/09 14:25:13;;;;;;;1.85;1.75;;;19.00;99.90;21.30;102086.00;;;;5083531;28;20188;-67
2023/04/09 14:28:05;;;;;;;0.10;0.10;;;18.60;99.90;21.30;102077.00;;;;5083751;28;20267;-67
2023/04/09 14:30:46;;;;;;;1.95;1.55;;;18.50;99.90;21.50;102069.00;;;;5016913;28;20637;-67
2023/04/09 14:33:26;;;;;;;0.73;0.73;;;18.50;99.90;22.20;102056.00;;;;5089971;28;20232;-67
2023/04/09 14:36:21;;;;;;;3.25;2.33;;;18.50;99.90;22.40;102047.00;;;;5091883;28;20642;-67
2023/04/09 14:39:01;;;;;;;0.40;0.40;;;18.80;99.90;22.20;102040.00;;;;5089014;28;20204;-67
2023/04/09 14:41:50;;;;;;;0.20;0.20;;;18.80;99.90;22.10;102031.00;;;;5101127;28;20189;-67
2023/04/09 14:44:47;;;;;;;0.10;0.10;;;19.00;99.90;22.60;102054.00;;;;5063790;28;20196;-67
2023/04/09 14:47:45;;;;;;;1.13;1.10;;;18.90;99.90;22.00;102039.00;;;;5093170;28;20193;-67
2023/04/09 14:50:46;;;;;;;1.65;0.75;;;18.90;99.90;22.40;102048.00;;;;5084135;28;20193;-67
2023/04/09 14:53:47;;;;;;;0.77;0.73;;;18.90;99.90;22.80;102038.00;;;;5075311;28;20219;-67
2023/04/09 14:56:53;;;;;;;0.25;0.25;;;19.20;99.90;22.70;102034.00;;;;5097206;28;20181;-67
2023/04/09 15:00:02;;;;;;;1.15;1.15;;;19.20;99.90;22.20;102052.00;;;;5083858;28;20208;-68
2023/04/09 15:03:21;;;;;;;2.53;1.05;;;19.20;99.90;23.30;102030.00;;;;5098625;28;20569;-67
2023/04/09 15:06:00;;;;;;;0.47;0.47;;;19.40;99.90;22.00;102035.00;;;;5097542;28;20196;-67
2023/04/09 15:09:09;;;;;;;0.63;0.63;;;19.30;99.90;22.00;102051.00;;;;5089527;28;20177;-67
2023/04/09 15:11:58;;;;;;;0.10;0.10;;;18.80;99.90;23.00;102035.00;;;;5095353;28;20216;-67
2023/04/09 15:15:07;;;;;;;0.10;0.10;;;19.40;99.90;22.50;102031.00;;;;5092645;28;20196;-67
2023/04/09 15:17:56;;;;;;;0.63;0.63;;;19.20;99.90;22.30;102032.00;;;;5107425;28;20199;-67
2023/04/09 15:20:52;;;;;;;0.98;0.95;;;19.20;99.90;21.80;102044.00;;;;5093119;28;20184;-67
2023/04/09 15:23:49;;;;;;;1.33;1.23;;;18.80;99.90;21.70;102052.00;;;;5107935;28;20662;-67
2023/04/09 15:26:40;;;;;;;1.67;1.58;;;18.80;99.90;21.50;102057.00;;;;5099106;28;20200;-67
2023/04/09 15:29:29;;;;;;;0.65;0.65;;;18.70;99.90;20.50;102078.00;;;;5112258;28;20279;-67
2023/04/09 15:32:24;;;;;;;1.13;0.55;;;18.00;99.90;21.50;102054.00;;;;5089115;28;20220;-67
2023/04/09 15:35:17;;;;;;;1.38;0.55;;;18.20;99.90;21.50;102056.00;;;;5087366;28;20657;-67
2023/04/09 15:38:12;;;;;;;0.20;0.20;;;18.20;99.90;21.30;102063.00;;;;5095170;28;20181;-67
2023/04/09 15:41:25;;;;;;;3.50;3.25;;;18.30;99.90;21.50;102046.00;;;;5094419;28;20189;-66
2023/04/09 15:44:15;;;;;;;4.03;1.75;;;18.40;99.90;21.00;102053.00;;;;5104239;28;20214;-67
2023/04/09 15:47:14;;;;;;;0.77;0.77;;;18.30;99.90;20.70;102061.00;;;;5098483;28;20546;-68
2023/04/09 15:50:15;;;;;;;0.67;0.57;;;17.80;99.90;21.00;102043.00;;;;5094449;28;20172;-66
2023/04/09 15:53:09;;;;;;;1.87;1.77;;;17.90;99.90;20.40;102014.00;;;;5108642;28;20230;-66
2023/04/09 15:55:51;;;;;;;1.50;0.57;;;18.00;99.90;21.30;102031.00;;;;5088526;28;20240;-67
2023/04/09 15:59:00;;;;;;;0.55;0.55;;;18.00;99.90;21.70;102029.00;;;;5101183;28;20193;-66
2023/04/09 16:01:47;;;;;;;0.75;0.75;;;18.20;99.90;21.20;102029.00;;;;5102267;28;20360;-66
2023/04/09 16:04:24;;;;;;;2.90;1.27;;;18.20;99.90;21.00;102036.00;;;;5094418;28;20196;-66
2023/04/09 16:06:50;;;;;;;0.30;0.30;;;17.90;99.90;20.40;101999.00;;;;5096480;28;20195;-66
2023/04/09 16:09:16;;;;;;;1.33;1.17;;;17.70;99.90;21.20;102004.00;;;;5111214;28;20195;-66
2023/04/09 16:11:42;;;;;;;0.53;0.53;;;17.80;99.90;21.30;102025.00;;;;5101895;28;20287;-66
2023/04/09 16:14:11;;;;;;;0.93;0.93;;;17.90;99.90;21.20;102033.00;;;;5104191;28;20176;-66
2023/04/09 16:16:58;;;;;;;2.40;2.27;;;17.90;99.90;21.00;102031.00;;;;5104678;28;20216;-66
2023/04/09 16:19:24;;;;;;;0.63;0.63;;;17.90;99.90;20.80;102031.00;;;;5093954;28;20185;-66
2023/04/09 16:21:54;;;;;;;0.22;0.22;;;17.80;99.90;20.90;102020.00;;;;5091335;28;20646;-66
2023/04/09 16:24:23;;;;;;;0.20;0.20;;;17.70;99.90;21.70;102013.00;;;;5097879;28;20748;-66
2023/04/09 16:26:51;;;;;;;3.57;2.10;;;17.80;99.90;21.20;102016.00;;;;5099126;28;20179;-66
2023/04/09 16:29:20;;;;;;;3.27;1.87;;;18.00;99.90;21.10;102010.00;;;;5098325;28;20212;-66
2023/04/09 16:31:51;;;;;;;0.30;0.30;;;18.00;99.90;21.20;102006.00;;;;5101226;28;20215;-66
2023/04/09 16:34:16;;;;;;;0.40;0.40;;;17.90;99.90;20.70;102011.00;;;;5098201;28;20206;-66
2023/04/09 16:36:51;;;;;;;0.70;0.70;;;17.80;99.90;20.90;102011.00;;;;5108847;28;20188;-66
2023/04/09 16:39:18;;;;;;;0.40;0.40;;;17.60;99.90;20.90;101993.00;;;;5104212;28;20198;-66
2023/04/09 16:42:00;;;;;;;4.53;2.43;;;17.60;99.90;20.70;102009.00;;;;5094541;28;20314;-66
2023/04/09 16:44:31;;;;;;;0.93;0.93;;;17.50;99.90;21.30;102011.00;;;;5108728;28;20269;-66
2023/04/09 16:47:01;;;;;;;0.30;0.30;;;17.60;99.90;20.80;102027.00;;;;5099057;28;20193;-66
2023/04/09 16:49:35;;;;;;;0.17;0.13;;;17.50;99.90;21.30;102014.00;;;;5095323;28;20191;-66
2023/04/09 16:52:06;;;;;;;0.10;0.10;;;17.60;99.90;21.10;102022.00;;;;5110543;28;20669;-66
2023/04/09 16:54:40;;;;;;;1.47;1.37;;;17.60;99.90;20.70;102030.00;;;;5104662;28;20188;-66
2023/04/09 16:57:06;;;;;;;0.13;0.13;;;17.40;99.90;21.70;102012.00;;;;5103870;28;20187;-66
2023/04/09 16:59:32;;;;;;;0.10;0.10;;;17.70;99.90;21.60;101977.00;;;;5104533;28;20194;-66
2023/04/09 17:02:21;;;;;;;0.10;0.10;;;17.80;99.90;21.50;102022.00;;;;5105432;28;20182;-67
2023/04/09 17:04:55;;;;;;;0.20;0.20;;;17.90;99.90;21.10;102030.00;;;;5079512;28;20258;-66
2023/04/09 17:07:32;;;;;;;0.50;0.50;;;17.70;99.90;21.30;102022.00;;;;5104432;28;20185;-66
2023/04/09 17:10:21;;;;;;;2.10;1.67;;;17.80;99.90;20.90;102025.00;;;;5101394;28;20178;-66
2023/04/09 17:13:10;;;;;;;1.73;1.63;;;17.50;99.90;20.80;102032.00;;;;5067578;28;20284;-66
2023/04/09 17:15:41;;;;;;;0.70;0.70;;;17.60;99.90;20.70;102025.00;;;;5076822;28;20634;-66
2023/04/09 17:18:13;;;;;;;2.03;2.00;;;17.40;99.90;20.70;102028.00;;;;5093954;28;20194;-66
2023/04/09 17:20:49;;;;;;;0.10;0.10;;;17.20;99.90;21.20;101986.00;;;;5107203;28;20176;-66
2023/04/09 17:23:21;;;;;;;0.10;0.10;;;17.30;99.90;21.90;101999.00;;;;5107167;28;20221;-66
2023/04/09 17:25:48;;;;;;;0.50;0.50;;;17.80;99.90;21.60;101994.00;;;;5088948;28;20184;-66
2023/04/09 17:28:19;;;;;;;0.23;0.23;;;17.80;99.90;21.40;102008.00;;;;5098526;28;20174;-66
2023/04/09 17:30:50;;;;;;;0.10;0.10;;;17.60;99.90;21.60;102006.00;;;;5101380;28;20398;-66
2023/04/09 17:33:30;;;;;;;0.10;0.10;;;17.80;99.90;21.80;101999.00;;;;5091143;28;20263;-66
2023/04/09 17:36:04;;;;;;;0.10;0.10;;;17.80;99.90;22.10;101994.00;;;;5109209;28;20198;-66
2023/04/09 17:38:30;;;;;;;0.83;0.80;;;18.00;99.90;20.50;101991.00;;;;5104781;28;20189;-66
2023/04/09 17:40:56;;;;;;;0.10;0.10;;;17.80;99.90;21.20;102012.00;;;;5102590;28;20186;-66
2023/04/09 17:43:48;;;;;;;0.20;0.20;;;17.60;99.90;20.90;102015.00;;;;5101502;28;20194;-66
2023/04/09 17:46:44;;;;;;;0.10;0.10;;;17.50;99.90;20.30;102030.00;;;;5078507;28;20599;-66
2023/04/09 17:49:38;;;;;;;0.10;0.10;;;17.30;99.90;21.10;102020.00;;;;5084208;28;20219;-66
2023/04/09 17:52:36;;;;;;;0.20;0.20;;;17.20;99.90;20.40;102027.00;;;;5090363;28;20208;-66
2023/04/09 17:56:12;;;;;;;0.10;0.10;;;17.00;99.90;20.10;102042.00;;;;5104728;28;20259;-66
2023/04/09 17:59:15;;;;;;;0.57;0.57;;;16.70;99.90;20.30;102040.00;;;;5091603;28;20204;-66
2023/04/09 18:02:05;;;;;;;4.37;3.07;;;16.90;99.90;19.30;102060.00;;;;5094714;28;20722;-66
2023/04/09 18:04:42;;;;;;;0.20;0.20;;;16.60;99.90;19.50;102067.00;;;;5077704;28;20277;-66
2023/04/09 18:07:32;;;;;;;0.10;0.10;;;16.30;99.90;20.10;102046.00;;;;5077414;28;20179;-66
2023/04/09 18:10:54;;;;;;;0.20;0.20;;;16.40;99.90;20.10;102052.00;;;;5100297;28;20274;-66
2023/04/09 18:13:48;;;;;;;1.80;1.50;;;16.30;99.90;20.00;102052.00;;;;5071643;28;20212;-66
2023/04/09 18:16:45;;;;;;;0.33;0.33;;;16.30;99.90;20.00;102048.00;;;;5095114;28;20592;-66
2023/04/09 18:19:14;;;;;;;0.17;0.17;;;16.40;99.90;19.30;102045.00;;;;5092195;28;20200;-66
2023/04/09 18:22:17;;;;;;;0.17;0.17;;;16.20;99.90;18.80;102071.00;;;;5104345;28;20207;-66
2023/04/09 18:24:58;;;;;;;1.13;1.13;;;15.90;99.90;19.00;102092.00;;;;5089403;28;20234;-66
2023/04/09 18:27:35;;;;;;;0.20;0.20;;;15.80;99.90;19.70;102069.00;;;;5095474;28;20203;-66
2023/04/09 18:30:01;;;;;;;0.17;0.17;;;15.80;99.90;19.60;102026.00;;;;5101107;28;20226;-66
2023/04/09 18:32:36;;;;;;;0.10;0.10;;;15.80;99.90;19.50;102070.00;;;;5095465;28;20751;-66
2023/04/09 18:35:06;;;;;;;0.10;0.10;;;15.70;99.90;19.80;102055.00;;;;5096850;28;20246;-66
2023/04/09 18:37:37;;;;;;;0.10;0.10;;;15.80;99.90;20.00;102065.00;;;;5100757;28;20187;-66
2023/04/09 18:40:11;;;;;;;0.10;0.10;;;15.80;99.90;19.80;102067.00;;;;5092611;28;20183;-66
2023/04/09 18:42:40;;;;;;;0.10;0.10;;;16.00;99.90;19.70;102059.00;;;;5090287;28;20196;-66
2023/04/09 18:45:07;;;;;;;0.10;0.10;;;15.90;99.90;19.60;102076.00;;;;5101120;28;20221;-66
2023/04/09 18:47:47;;;;;;;0.10;0.10;;;15.70;99.90;19.90;102064.00;;;;5091175;28;20187;-66
2023/04/09 18:50:18;;;;;;;0.20;0.20;;;15.80;99.90;19.80;102068.00;;;;5086673;28;20190;-66
2023/04/09 18:52:49;;;;;;;0.10;0.10;;;16.00;99.90;19.50;102072.00;;;;5093431;28;20617;-66
2023/04/09 18:55:25;;;;;;;0.57;0.57;;;15.80;99.90;19.40;102072.00;;;;5113312;28;20186;-66
2023/04/09 18:57:51;;;;;;;0.13;0.13;;;15.60;99.90;18.80;102088.00;;;;5103383;28;20185;-66
2023/04/09 19:00:20;;;;;;;0.30;0.30;;;15.50;99.90;19.00;102086.00;;;;5111611;28;20184;-66
2023/04/09 19:02:48;;;;;;;0.10;0.10;;;15.30;99.90;19.00;102085.00;;;;5097335;28;20680;-66
2023/04/09 19:05:17;;;;;;;0.20;0.20;;;15.30;99.90;19.00;102082.00;;;;5107430;28;20181;-66
2023/04/09 19:07:45;;;;;;;3.70;2.10;;;15.30;99.90;18.80;102088.00;;;;5104870;28;20188;-66
2023/04/09 19:10:12;;;;;;;0.10;0.10;;;15.30;99.90;18.80;102080.00;;;;5100130;28;20541;-66
2023/04/09 19:12:49;;;;;;;0.40;0.40;;;15.30;99.90;18.60;102084.00;;;;5101601;28;20557;-66